KSHR/SHR METAR and TAF weather

Enter ICAO airport designator
Station Type Date Time Source
KSHR METAR 2020/10/20 16:53 UTC NOAA

KSHR 201653Z AUTO 32009KT 10SM OVC055 04/00 A3004 RMK AO2 SLP192 T00440000


Station Type Date Time Source
KSHR Decoded METAR 2020/10/20 16:53 UTC NOAA

SHERIDAN COUNTY AIRPORT, WY, United States (KSHR) 44-46N 106-58W 1202M
Oct 20, 2020 - 12:53 PM EDT / 2020.10.20 1653 UTC
Wind: from the NW (320 degrees) at 10 MPH (9 KT):0
Visibility: 10 mile(s):0
Sky conditions: overcast
Temperature: 39.9 F (4.4 C)
Dew Point: 32.0 F (0.0 C)
Relative Humidity: 73%
Pressure (altimeter): 30.04 in. Hg (1017 hPa)
ob: KSHR 201653Z AUTO 32009KT 10SM OVC055 04/00 A3004 RMK AO2 SLP192 T00440000
cycle: 17

Station Type Date Time Source
KSHR TAF 2020/10/20 18:42 UTC NOAA

TAF KSHR 201739Z 2018/2118 31011KT P6SM VCSH SCT025 BKN050
FM202000 32008KT P6SM SCT050 BKN100
FM210700 31007KT P6SM VCSH SCT025 BKN050 OVC080

Example: see airport list